createdAt,value
2018-08-23T00:00:39.265Z,22.58
2018-08-23T00:04:07.127Z,22.60
2018-08-23T00:07:31.571Z,22.54
2018-08-23T00:10:55.980Z,22.37
2018-08-23T00:14:20.449Z,22.38
2018-08-23T00:17:47.649Z,22.45
2018-08-23T00:21:17.163Z,22.38
2018-08-23T00:24:41.641Z,22.33
2018-08-23T00:28:06.598Z,22.23
2018-08-23T00:31:34.171Z,22.18
2018-08-23T00:34:58.825Z,22.17
2018-08-23T00:38:23.238Z,22.28
2018-08-23T00:41:52.792Z,22.15
2018-08-23T00:45:19.032Z,22.06
2018-08-23T00:48:43.965Z,22.04
2018-08-23T00:52:08.430Z,22.07
2018-08-23T00:55:32.867Z,21.89
2018-08-23T00:59:00.665Z,21.74
2018-08-23T01:02:25.050Z,21.77
2018-08-23T01:05:49.462Z,21.65
2018-08-23T01:09:14.546Z,21.68
2018-08-23T01:12:49.445Z,21.55
2018-08-23T01:16:14.906Z,21.56
2018-08-23T01:19:44.580Z,21.46
2018-08-23T01:23:09.132Z,21.37
2018-08-23T01:26:35.638Z,21.30
2018-08-23T01:30:00.111Z,21.35
2018-08-23T01:33:24.548Z,21.19
2018-08-23T01:36:48.994Z,21.20
2018-08-23T01:40:13.429Z,21.14
2018-08-23T01:43:37.883Z,21.12
2018-08-23T01:47:03.466Z,21.10
2018-08-23T01:50:28.175Z,21.04
2018-08-23T01:53:52.642Z,21.03
2018-08-23T01:57:22.404Z,21.00
2018-08-23T02:00:49.055Z,20.98
2018-08-23T02:04:13.566Z,20.94
2018-08-23T02:07:37.970Z,20.89
2018-08-23T02:11:02.478Z,20.78
2018-08-23T02:14:28.370Z,20.70
2018-08-23T02:17:58.881Z,20.71
2018-08-23T02:21:23.352Z,20.69
2018-08-23T02:24:49.501Z,20.60
2018-08-23T02:28:13.916Z,20.61
2018-08-23T02:31:38.494Z,20.51
2018-08-23T02:35:06.006Z,20.51
2018-08-23T02:38:30.693Z,20.48
2018-08-23T02:41:55.132Z,20.38
2018-08-23T02:45:19.578Z,20.36
2018-08-23T02:48:44.054Z,20.39
2018-08-23T02:52:08.503Z,20.28
2018-08-23T02:55:39.328Z,20.33
2018-08-23T02:59:06.653Z,20.24
2018-08-23T03:02:31.125Z,20.19
2018-08-23T03:05:55.603Z,20.19
2018-08-23T03:09:23.892Z,20.19
2018-08-23T03:12:48.394Z,20.07
2018-08-23T03:16:13.302Z,20.11
2018-08-23T03:19:37.775Z,20.13
2018-08-23T03:23:02.205Z,20.05
2018-08-23T03:26:26.609Z,20.02
2018-08-23T03:29:51.278Z,20.10
2018-08-23T03:33:15.719Z,20.02
2018-08-23T03:36:40.153Z,19.98
2018-08-23T03:40:04.875Z,19.96
2018-08-23T03:43:29.324Z,19.94
2018-08-23T03:46:55.120Z,19.95
2018-08-23T03:50:19.540Z,19.90
2018-08-23T03:53:49.450Z,19.82
2018-08-23T03:57:16.606Z,19.87
2018-08-23T04:01:00.419Z,19.77
2018-08-23T04:04:24.812Z,19.89
2018-08-23T04:07:49.239Z,19.95
2018-08-23T04:11:13.721Z,19.86
2018-08-23T04:14:38.505Z,19.71
2018-08-23T04:18:18.300Z,19.74
2018-08-23T04:21:42.719Z,19.63
2018-08-23T04:25:14.049Z,19.65
2018-08-23T04:28:38.605Z,19.48
2018-08-23T04:32:04.451Z,19.49
2018-08-23T04:35:29.849Z,19.45
2018-08-23T04:38:58.366Z,19.53
2018-08-23T04:42:22.809Z,19.41
2018-08-23T04:45:47.293Z,19.41
2018-08-23T04:49:11.810Z,19.47
2018-08-23T04:52:36.228Z,19.43
2018-08-23T04:56:00.635Z,19.50
2018-08-23T04:59:25.096Z,19.49
2018-08-23T05:02:49.731Z,19.32
2018-08-23T05:06:14.241Z,19.44
2018-08-23T05:09:38.668Z,19.48
2018-08-23T05:13:03.126Z,19.53
2018-08-23T05:16:27.600Z,19.67
2018-08-23T05:19:52.110Z,19.49
2018-08-23T05:23:16.595Z,19.57
2018-08-23T05:26:41.407Z,19.74
2018-08-23T05:30:06.062Z,19.82
2018-08-23T05:33:30.492Z,20.01
2018-08-23T05:36:54.912Z,20.13
2018-08-23T05:40:19.337Z,20.15
2018-08-23T05:43:43.844Z,20.23
2018-08-23T05:47:08.308Z,20.31
2018-08-23T05:50:36.021Z,20.52
2018-08-23T05:54:00.448Z,20.78
2018-08-23T05:57:24.852Z,20.93
2018-08-23T06:00:49.264Z,21.18
2018-08-23T06:04:14.404Z,21.06
2018-08-23T06:07:38.873Z,21.14
2018-08-23T06:11:09.079Z,21.31
2018-08-23T06:14:33.480Z,21.31
2018-08-23T06:17:57.915Z,21.44
2018-08-23T06:21:22.414Z,21.43
2018-08-23T06:24:46.821Z,21.65
2018-08-23T06:28:24.203Z,21.77
2018-08-23T06:32:00.487Z,21.80
2018-08-23T06:35:26.485Z,21.87
2018-08-23T06:38:56.205Z,22.00
2018-08-23T06:42:21.043Z,22.06
2018-08-23T06:45:45.469Z,22.00
2018-08-23T06:49:09.897Z,22.18
2018-08-23T06:52:39.487Z,22.41
2018-08-23T06:56:03.917Z,22.39
2018-08-23T06:59:28.436Z,22.43
2018-08-23T07:02:52.872Z,22.53
2018-08-23T07:06:17.339Z,22.74
2018-08-23T07:09:41.762Z,22.89
2018-08-23T07:13:07.268Z,22.90
2018-08-23T07:16:32.507Z,23.01
2018-08-23T07:20:00.321Z,23.42
2018-08-23T07:23:34.609Z,23.29
2018-08-23T07:26:59.013Z,23.15
2018-08-23T07:30:23.452Z,23.29
2018-08-23T07:33:52.643Z,23.54
2018-08-23T07:37:18.394Z,23.80
2018-08-23T07:40:42.802Z,23.97
2018-08-23T07:44:07.279Z,24.14
2018-08-23T07:47:32.528Z,24.02
2018-08-23T07:50:57.011Z,23.65
2018-08-23T07:54:23.220Z,23.68
2018-08-23T07:57:47.812Z,24.20
2018-08-23T08:01:14.224Z,24.33
2018-08-23T08:04:38.639Z,24.16
2018-08-23T08:08:03.253Z,24.62
2018-08-23T08:11:30.096Z,24.48
2018-08-23T08:14:54.612Z,24.88
2018-08-23T08:18:22.786Z,24.78
2018-08-23T08:21:47.282Z,24.88
2018-08-23T08:25:19.129Z,25.23
2018-08-23T08:28:43.531Z,25.38
2018-08-23T08:32:10.050Z,25.57
2018-08-23T08:35:34.500Z,25.41
2018-08-23T08:38:59.371Z,25.34
2018-08-23T08:42:34.002Z,25.58
2018-08-23T08:45:59.509Z,25.50
2018-08-23T08:49:23.995Z,25.44
2018-08-23T08:52:48.396Z,26.02
2018-08-23T08:56:12.884Z,25.91
2018-08-23T08:59:37.329Z,25.86
2018-08-23T09:03:01.753Z,25.57
2018-08-23T09:06:46.669Z,25.21
2018-08-23T09:10:10.778Z,25.89
2018-08-23T09:13:40.339Z,26.14
2018-08-23T09:17:26.888Z,26.34
2018-08-23T09:20:54.895Z,26.45
2018-08-23T09:24:28.745Z,26.28
2018-08-23T09:27:53.165Z,26.62
2018-08-23T09:31:17.679Z,27.06
2018-08-23T09:34:42.645Z,27.84
2018-08-23T09:38:14.895Z,28.03
2018-08-23T09:41:39.451Z,28.45
2018-08-23T09:45:17.067Z,28.21
2018-08-23T09:48:41.485Z,27.34
2018-08-23T09:52:11.571Z,27.03
2018-08-23T09:55:35.968Z,27.78
2018-08-23T09:59:00.513Z,27.44
2018-08-23T10:02:30.144Z,27.58
2018-08-23T10:05:59.745Z,28.05
2018-08-23T10:09:24.533Z,28.80
2018-08-23T10:12:54.274Z,28.26
2018-08-23T10:16:24.032Z,28.08
2018-08-23T10:19:53.605Z,27.59
2018-08-23T10:23:26.095Z,28.05
2018-08-23T10:26:50.478Z,28.73
2018-08-23T10:30:14.973Z,30.73
2018-08-23T10:33:39.396Z,31.54
2018-08-23T10:37:03.760Z,31.86
2018-08-23T10:40:28.200Z,32.94
2018-08-23T10:43:52.609Z,32.65
2018-08-23T10:47:22.163Z,31.54
2018-08-23T10:50:48.196Z,30.32
2018-08-23T10:54:12.597Z,28.58
2018-08-23T10:57:37.034Z,32.01
2018-08-23T11:01:01.532Z,33.48
2018-08-23T11:04:25.946Z,33.70
2018-08-23T11:08:57.086Z,34.07
2018-08-23T11:12:26.653Z,34.98
2018-08-23T11:15:55.130Z,34.26
2018-08-23T11:19:24.751Z,32.76
2018-08-23T11:22:49.221Z,31.79
2018-08-23T11:26:22.182Z,30.34
2018-08-23T11:29:46.660Z,30.08
2018-08-23T11:33:11.103Z,30.14
2018-08-23T11:36:35.521Z,30.62
2018-08-23T11:39:59.989Z,30.86
2018-08-23T11:43:24.423Z,31.08
2018-08-23T11:46:48.966Z,30.63
2018-08-23T11:50:13.391Z,31.59
2018-08-23T11:53:38.056Z,31.58
2018-08-23T11:57:02.245Z,31.40
2018-08-23T12:00:26.733Z,31.02
2018-08-23T12:03:51.191Z,30.56
2018-08-23T12:07:15.624Z,29.79
2018-08-23T12:10:40.055Z,30.98
2018-08-23T12:14:04.664Z,31.03
2018-08-23T12:17:29.078Z,31.23
2018-08-23T12:20:53.496Z,31.65
2018-08-23T12:24:17.969Z,31.42
2018-08-23T12:27:42.778Z,31.94
2018-08-23T12:31:07.453Z,32.35
2018-08-23T12:34:36.187Z,32.55
2018-08-23T12:38:05.877Z,33.04
2018-08-23T12:42:35.171Z,32.17
2018-08-23T12:46:04.417Z,31.88
2018-08-23T12:49:28.893Z,32.81
2018-08-23T12:52:53.411Z,32.82
2018-08-23T12:56:17.923Z,33.37
2018-08-23T12:59:42.419Z,33.91
2018-08-23T13:03:07.731Z,34.71
2018-08-23T13:06:32.132Z,34.10
2018-08-23T13:09:56.553Z,35.24
2018-08-23T13:13:20.997Z,34.38
2018-08-23T13:16:45.531Z,34.19
2018-08-23T13:20:09.957Z,35.39
2018-08-23T13:23:34.416Z,37.21
2018-08-23T13:26:58.869Z,35.84
2018-08-23T13:30:23.329Z,37.75
2018-08-23T13:33:47.773Z,36.80
2018-08-23T13:37:12.200Z,36.52
2018-08-23T13:40:36.632Z,36.04
2018-08-23T13:44:01.155Z,38.12
2018-08-23T13:47:25.532Z,37.86
2018-08-23T13:50:49.954Z,39.01
2018-08-23T13:54:14.384Z,39.30
2018-08-23T13:57:38.857Z,39.68
2018-08-23T14:01:03.302Z,38.72
2018-08-23T14:04:27.723Z,38.84
2018-08-23T14:07:52.156Z,38.05
2018-08-23T14:11:16.690Z,38.88
2018-08-23T14:14:41.814Z,38.13
2018-08-23T14:18:06.287Z,39.29
2018-08-23T14:21:30.751Z,39.94
2018-08-23T14:24:55.247Z,39.52
2018-08-23T14:28:19.825Z,38.20
2018-08-23T14:31:44.235Z,39.27
2018-08-23T14:35:08.739Z,39.36
2018-08-23T14:38:33.270Z,39.38
2018-08-23T14:41:57.665Z,39.00
2018-08-23T14:45:27.251Z,40.46
2018-08-23T14:48:51.697Z,39.83
2018-08-23T14:52:16.178Z,37.37
2018-08-23T14:55:45.770Z,36.16
2018-08-23T14:59:10.275Z,36.66
2018-08-23T15:02:34.788Z,36.66
2018-08-23T15:05:59.211Z,36.96
2018-08-23T15:09:28.010Z,38.99
2018-08-23T15:12:52.568Z,38.37
2018-08-23T15:16:17.056Z,38.53
2018-08-23T15:19:41.685Z,38.00
2018-08-23T15:23:06.489Z,39.21
2018-08-23T15:26:31.056Z,37.96
2018-08-23T15:29:55.306Z,38.79
2018-08-23T15:33:19.719Z,39.56
2018-08-23T15:36:44.185Z,38.93
2018-08-23T15:40:08.687Z,37.29
2018-08-23T15:43:33.111Z,37.54
2018-08-23T15:46:57.518Z,37.60
2018-08-23T15:50:23.545Z,38.00
2018-08-23T15:53:47.915Z,35.85
2018-08-23T15:57:12.373Z,33.04
2018-08-23T16:00:39.808Z,31.87
2018-08-23T16:04:04.390Z,32.96
2018-08-23T16:07:28.790Z,34.08
2018-08-23T16:10:53.228Z,32.96
2018-08-23T16:14:17.709Z,33.59
2018-08-23T16:17:47.300Z,34.78
2018-08-23T16:21:11.711Z,35.19
2018-08-23T16:24:36.117Z,32.66
2018-08-23T16:28:06.136Z,30.88
2018-08-23T16:31:30.769Z,30.79
2018-08-23T16:34:55.270Z,31.32
2018-08-23T16:38:19.682Z,31.54
2018-08-23T16:41:44.153Z,31.53
2018-08-23T16:45:08.665Z,31.24
2018-08-23T16:48:33.097Z,31.68
2018-08-23T16:51:57.502Z,31.41
2018-08-23T16:55:21.923Z,30.97
2018-08-23T16:58:46.345Z,31.32
2018-08-23T17:02:10.958Z,30.83
2018-08-23T17:05:35.410Z,30.88
2018-08-23T17:09:00.149Z,31.70
2018-08-23T17:12:24.525Z,30.76
2018-08-23T17:15:54.117Z,30.17
2018-08-23T17:19:18.609Z,30.14
2018-08-23T17:22:44.581Z,29.95
2018-08-23T17:26:09.033Z,29.87
2018-08-23T17:29:33.467Z,29.00
2018-08-23T17:32:57.900Z,29.31
2018-08-23T17:36:22.336Z,28.63
2018-08-23T17:39:46.774Z,28.82
2018-08-23T17:43:11.213Z,28.48
2018-08-23T17:46:35.672Z,28.04
2018-08-23T17:50:00.111Z,28.23
2018-08-23T17:53:24.553Z,27.89
2018-08-23T17:56:49.009Z,27.48
2018-08-23T18:00:13.482Z,27.90
2018-08-23T18:03:37.913Z,27.70
2018-08-23T18:07:02.369Z,27.58
2018-08-23T18:10:28.022Z,27.61
2018-08-23T18:13:52.449Z,27.08
2018-08-23T18:17:16.895Z,27.25
2018-08-23T18:20:41.296Z,27.14
2018-08-23T18:24:05.883Z,26.97
2018-08-23T18:27:30.278Z,26.95
2018-08-23T18:30:54.716Z,26.97
2018-08-23T18:34:19.178Z,27.07
2018-08-23T18:37:43.785Z,26.96
2018-08-23T18:41:08.079Z,26.59
2018-08-23T18:44:32.500Z,26.55
2018-08-23T18:47:56.943Z,26.03
2018-08-23T18:51:21.356Z,25.99
2018-08-23T18:54:45.771Z,26.29
2018-08-23T18:58:10.232Z,25.94
2018-08-23T19:01:34.679Z,25.56
2018-08-23T19:04:59.117Z,25.35
2018-08-23T19:08:23.559Z,25.19
2018-08-23T19:11:48.019Z,25.07
2018-08-23T19:15:12.554Z,25.31
2018-08-23T19:18:37.379Z,25.22
2018-08-23T19:22:02.523Z,25.20
2018-08-23T19:25:27.619Z,25.09
2018-08-23T19:28:52.798Z,25.26
2018-08-23T19:32:18.113Z,25.24
2018-08-23T19:35:42.545Z,24.88
2018-08-23T19:39:11.503Z,24.98
2018-08-23T19:42:36.078Z,25.13
2018-08-23T19:46:05.715Z,25.20
2018-08-23T19:49:35.413Z,25.21
2018-08-23T19:52:59.935Z,25.13
2018-08-23T19:56:24.428Z,25.22
2018-08-23T19:59:48.937Z,25.21
2018-08-23T20:03:13.391Z,25.16
2018-08-23T20:06:37.962Z,25.16
2018-08-23T20:10:02.392Z,24.96
2018-08-23T20:13:26.986Z,24.84
2018-08-23T20:16:51.417Z,24.92
2018-08-23T20:20:17.017Z,24.86
2018-08-23T20:23:41.480Z,24.88
2018-08-23T20:27:05.953Z,24.61
2018-08-23T20:30:30.404Z,24.47
2018-08-23T20:33:54.832Z,24.61
2018-08-23T20:37:19.301Z,24.44
2018-08-23T20:40:43.716Z,24.34
2018-08-23T20:44:08.665Z,24.22
2018-08-23T20:47:33.108Z,24.27
2018-08-23T20:50:57.580Z,24.46
2018-08-23T20:54:22.020Z,24.42
2018-08-23T20:57:46.517Z,24.24
2018-08-23T21:01:10.963Z,24.09
2018-08-23T21:04:39.279Z,24.32
2018-08-23T21:08:03.821Z,24.12
2018-08-23T21:11:28.224Z,24.16
2018-08-23T21:14:52.645Z,24.01
2018-08-23T21:18:17.053Z,24.14
2018-08-23T21:21:41.452Z,23.95
2018-08-23T21:25:05.937Z,24.14
2018-08-23T21:28:30.358Z,23.88
2018-08-23T21:31:54.784Z,24.05
2018-08-23T21:35:19.224Z,24.00
2018-08-23T21:38:43.657Z,23.64
2018-08-23T21:42:08.113Z,24.03
2018-08-23T21:45:32.528Z,23.76
2018-08-23T21:48:56.995Z,23.89
2018-08-23T21:52:21.411Z,23.69
2018-08-23T21:55:45.831Z,23.68
2018-08-23T21:59:10.393Z,23.77
2018-08-23T22:02:34.874Z,23.99
2018-08-23T22:05:59.284Z,24.31
2018-08-23T22:09:23.730Z,23.90
2018-08-23T22:12:48.180Z,23.93
2018-08-23T22:16:12.632Z,23.87
2018-08-23T22:19:37.051Z,24.14
2018-08-23T22:23:01.469Z,23.93
2018-08-23T22:26:25.933Z,23.94
2018-08-23T22:29:50.314Z,24.05
2018-08-23T22:33:14.774Z,24.10
2018-08-23T22:36:39.164Z,23.89
2018-08-23T22:40:03.591Z,23.89
2018-08-23T22:43:28.015Z,24.01
2018-08-23T22:46:52.425Z,23.63
2018-08-23T22:50:16.854Z,23.82
2018-08-23T22:53:41.376Z,23.47
2018-08-23T22:57:05.856Z,23.73
2018-08-23T23:00:35.625Z,23.57
2018-08-23T23:04:05.309Z,23.47
2018-08-23T23:07:29.729Z,23.22
2018-08-23T23:10:54.076Z,23.43
2018-08-23T23:14:18.503Z,23.71
2018-08-23T23:17:42.953Z,23.51
2018-08-23T23:21:07.348Z,23.62
2018-08-23T23:24:36.756Z,23.77
2018-08-23T23:28:01.175Z,23.60
2018-08-23T23:31:25.597Z,23.43
2018-08-23T23:34:49.987Z,23.53
2018-08-23T23:38:14.367Z,23.37
2018-08-23T23:41:38.799Z,22.61
2018-08-23T23:45:03.215Z,22.44
2018-08-23T23:48:27.662Z,21.83
2018-08-23T23:51:52.090Z,21.56
2018-08-23T23:55:16.549Z,21.66
2018-08-23T23:58:40.994Z,21.26
